createdAt,value
2018-09-02T00:00:42.890Z,98715.11
2018-09-02T00:03:13.292Z,98713.51
2018-09-02T00:05:46.051Z,98707.63
2018-09-02T00:08:19.433Z,98700.66
2018-09-02T00:10:49.157Z,98703.84
2018-09-02T00:13:19.113Z,98698.13
2018-09-02T00:15:48.246Z,98705.82
2018-09-02T00:18:17.432Z,98701.78
2018-09-02T00:20:46.550Z,98701.05
2018-09-02T00:23:15.673Z,98703.61
2018-09-02T00:25:45.038Z,98703.13
2018-09-02T00:28:14.149Z,98702.72
2018-09-02T00:30:43.379Z,98700.17
2018-09-02T00:33:12.980Z,98704.11
2018-09-02T00:35:42.452Z,98705.59
2018-09-02T00:38:12.083Z,98706.27
2018-09-02T00:40:41.802Z,98702.72
2018-09-02T00:43:11.318Z,98699.38
2018-09-02T00:45:40.479Z,98699.45
2018-09-02T00:48:09.778Z,98699.02
2018-09-02T00:50:38.918Z,98696.67
2018-09-02T00:53:08.591Z,98693.72
2018-09-02T00:55:38.489Z,98693.41
2018-09-02T00:58:10.226Z,98691.45
2018-09-02T01:00:39.398Z,98694.72
2018-09-02T01:03:08.534Z,98693.61
2018-09-02T01:05:38.266Z,98692.83
2018-09-02T01:08:09.725Z,98697.17
2018-09-02T01:10:38.854Z,98699.45
2018-09-02T01:13:08.030Z,98703.32
2018-09-02T01:15:37.193Z,98706.73
2018-09-02T01:18:06.294Z,98708.55
2018-09-02T01:20:35.635Z,98707.63
2018-09-02T01:23:04.863Z,98707.72
2018-09-02T01:25:33.955Z,98709.12
2018-09-02T01:28:03.120Z,98701.32
2018-09-02T01:30:32.282Z,98702.94
2018-09-02T01:33:01.421Z,98695.36
2018-09-02T01:35:33.241Z,98691.23
2018-09-02T01:38:04.190Z,98692.08
2018-09-02T01:40:34.367Z,98685.86
2018-09-02T01:43:04.734Z,98691.30
2018-09-02T01:45:34.049Z,98687.85
2018-09-02T01:48:04.172Z,98685.83
2018-09-02T01:50:33.312Z,98688.48
2018-09-02T01:53:02.853Z,98690.84
2018-09-02T01:55:32.013Z,98682.27
2018-09-02T01:58:01.166Z,98681.80
2018-09-02T02:00:30.287Z,98684.86
2018-09-02T02:02:59.753Z,98677.59
2018-09-02T02:05:29.622Z,98679.05
2018-09-02T02:07:59.803Z,98675.00
2018-09-02T02:10:30.214Z,98672.02
2018-09-02T02:12:59.822Z,98671.31
2018-09-02T02:15:29.266Z,98660.64
2018-09-02T02:17:58.502Z,98677.38
2018-09-02T02:20:28.280Z,98670.86
2018-09-02T02:22:57.887Z,98673.42
2018-09-02T02:25:27.246Z,98663.86
2018-09-02T02:27:58.180Z,98661.04
2018-09-02T02:30:27.456Z,98661.62
2018-09-02T02:32:57.097Z,98656.17
2018-09-02T02:35:26.370Z,98658.73
2018-09-02T02:37:56.070Z,98655.93
2018-09-02T02:40:25.331Z,98658.59
2018-09-02T02:42:55.302Z,98654.25
2018-09-02T02:45:25.312Z,98649.41
2018-09-02T02:47:54.536Z,98654.25
2018-09-02T02:50:26.485Z,98642.23
2018-09-02T02:53:00.771Z,98646.08
2018-09-02T02:55:31.280Z,98643.13
2018-09-02T02:58:01.474Z,98633.81
2018-09-02T03:00:31.185Z,98637.58
2018-09-02T03:03:00.358Z,98644.07
2018-09-02T03:05:30.871Z,98642.41
2018-09-02T03:08:00.057Z,98637.85
2018-09-02T03:10:29.192Z,98638.23
2018-09-02T03:12:58.820Z,98631.50
2018-09-02T03:15:28.443Z,98625.38
2018-09-02T03:17:57.821Z,98626.27
2018-09-02T03:20:26.958Z,98632.45
2018-09-02T03:22:56.090Z,98628.43
2018-09-02T03:25:27.371Z,98623.32
2018-09-02T03:27:56.510Z,98631.00
2018-09-02T03:30:25.630Z,98626.06
2018-09-02T03:32:55.135Z,98622.50
2018-09-02T03:35:24.333Z,98619.77
2018-09-02T03:37:53.507Z,98618.38
2018-09-02T03:40:22.653Z,98621.16
2018-09-02T03:42:52.609Z,98617.99
2018-09-02T03:45:21.778Z,98619.20
2018-09-02T03:47:50.935Z,98615.55
2018-09-02T03:50:20.157Z,98613.05
2018-09-02T03:52:49.299Z,98614.69
2018-09-02T03:55:18.842Z,98620.53
2018-09-02T03:57:48.326Z,98609.98
2018-09-02T04:00:17.819Z,98615.70
2018-09-02T04:02:47.714Z,98606.14
2018-09-02T04:05:17.110Z,98612.92
2018-09-02T04:07:46.733Z,98615.65
2018-09-02T04:10:16.034Z,98615.92
2018-09-02T04:12:45.767Z,98618.30
2018-09-02T04:15:15.002Z,98614.59
2018-09-02T04:17:44.313Z,98610.91
2018-09-02T04:20:14.543Z,98601.80
2018-09-02T04:22:43.961Z,98609.47
2018-09-02T04:25:14.396Z,98607.20
2018-09-02T04:27:45.417Z,98599.96
2018-09-02T04:30:15.425Z,98602.06
2018-09-02T04:32:46.078Z,98604.45
2018-09-02T04:35:15.681Z,98600.19
2018-09-02T04:37:44.654Z,98604.90
2018-09-02T04:40:14.227Z,98602.62
2018-09-02T04:42:43.598Z,98599.67
2018-09-02T04:45:12.981Z,98600.85
2018-09-02T04:47:42.849Z,98602.73
2018-09-02T04:50:20.957Z,98597.52
2018-09-02T04:52:50.329Z,98602.45
2018-09-02T04:55:21.380Z,98596.52
2018-09-02T04:57:50.514Z,98593.73
2018-09-02T05:00:21.631Z,98597.19
2018-09-02T05:02:50.898Z,98594.45
2018-09-02T05:05:20.016Z,98592.89
2018-09-02T05:07:50.111Z,98597.05
2018-09-02T05:10:21.755Z,98595.06
2018-09-02T05:12:51.906Z,98601.74
2018-09-02T05:15:21.065Z,98604.30
2018-09-02T05:17:50.235Z,98602.62
2018-09-02T05:20:22.219Z,98600.01
2018-09-02T05:22:51.486Z,98600.46
2018-09-02T05:25:20.667Z,98597.62
2018-09-02T05:27:50.589Z,98597.72
2018-09-02T05:30:19.810Z,98596.44
2018-09-02T05:32:48.959Z,98602.45
2018-09-02T05:35:19.256Z,98598.42
2018-09-02T05:37:48.816Z,98596.80
2018-09-02T05:40:17.965Z,98590.51
2018-09-02T05:42:47.189Z,98589.16
2018-09-02T05:45:16.641Z,98591.03
2018-09-02T05:47:46.168Z,98593.48
2018-09-02T05:50:15.427Z,98597.04
2018-09-02T05:52:44.621Z,98598.61
2018-09-02T05:55:14.186Z,98594.88
2018-09-02T05:57:43.328Z,98599.50
2018-09-02T06:00:14.970Z,98600.07
2018-09-02T06:02:44.150Z,98599.49
2018-09-02T06:05:13.302Z,98602.56
2018-09-02T06:07:42.916Z,98600.91
2018-09-02T06:10:12.194Z,98600.52
2018-09-02T06:12:46.335Z,98602.78
2018-09-02T06:15:18.281Z,98605.33
2018-09-02T06:17:49.931Z,98599.22
2018-09-02T06:20:26.474Z,98603.86
2018-09-02T06:22:56.509Z,98597.34
2018-09-02T06:25:27.183Z,98601.48
2018-09-02T06:27:56.588Z,98602.56
2018-09-02T06:30:26.163Z,98604.45
2018-09-02T06:32:56.683Z,98602.28
2018-09-02T06:35:28.000Z,98605.23
2018-09-02T06:37:57.309Z,98603.16
2018-09-02T06:40:27.619Z,98604.94
2018-09-02T06:42:57.030Z,98599.91
2018-09-02T06:45:27.739Z,98603.67
2018-09-02T06:47:57.967Z,98602.67
2018-09-02T06:50:28.983Z,98605.14
2018-09-02T06:52:58.243Z,98601.59
2018-09-02T06:55:27.895Z,98601.09
2018-09-02T06:57:58.718Z,98603.66
2018-09-02T07:00:28.280Z,98605.01
2018-09-02T07:02:57.517Z,98608.67
2018-09-02T07:05:26.739Z,98604.44
2018-09-02T07:07:56.037Z,98600.00
2018-09-02T07:10:25.921Z,98603.55
2018-09-02T07:12:55.186Z,98605.11
2018-09-02T07:15:24.010Z,98605.80
2018-09-02T07:17:57.117Z,98601.58
2018-09-02T07:20:27.815Z,98604.84
2018-09-02T07:22:58.320Z,98603.34
2018-09-02T07:25:32.146Z,98600.70
2018-09-02T07:28:02.540Z,98599.98
2018-09-02T07:30:31.889Z,98599.59
2018-09-02T07:33:01.199Z,98605.11
2018-09-02T07:35:31.342Z,98611.80
2018-09-02T07:40:44.979Z,98602.31
2018-09-02T07:43:14.130Z,98599.02
2018-09-02T07:45:49.931Z,98596.30
2018-09-02T07:48:20.848Z,98603.17
2018-09-02T07:50:51.773Z,98601.53
2018-09-02T07:53:29.760Z,98603.02
2018-09-02T07:56:01.599Z,98601.35
2018-09-02T07:58:32.042Z,98603.42
2018-09-02T08:01:01.294Z,98597.53
2018-09-02T08:03:30.844Z,98606.61
2018-09-02T08:06:00.486Z,98603.66
2018-09-02T08:08:30.646Z,98599.83
2018-09-02T08:10:59.894Z,98605.73
2018-09-02T08:13:29.509Z,98599.40
2018-09-02T08:15:58.888Z,98607.14
2018-09-02T08:18:28.957Z,98607.91
2018-09-02T08:20:58.242Z,98612.97
2018-09-02T08:23:27.755Z,98614.03
2018-09-02T08:25:57.893Z,98614.17
2018-09-02T08:28:27.167Z,98616.06
2018-09-02T08:30:56.568Z,98606.80
2018-09-02T08:33:25.823Z,98614.77
2018-09-02T08:35:55.193Z,98617.88
2018-09-02T08:38:24.517Z,98614.84
2018-09-02T08:40:53.779Z,98614.22
2018-09-02T08:43:25.756Z,98612.16
2018-09-02T08:45:55.426Z,98608.86
2018-09-02T08:48:25.964Z,98614.48
2018-09-02T08:50:55.613Z,98614.55
2018-09-02T08:53:24.865Z,98609.41
2018-09-02T08:55:54.176Z,98614.45
2018-09-02T08:58:23.266Z,98608.72
2018-09-02T09:00:53.338Z,98614.34
2018-09-02T09:03:22.600Z,98613.13
2018-09-02T09:05:51.727Z,98612.37
2018-09-02T09:08:21.080Z,98615.20
2018-09-02T09:10:50.327Z,98609.11
2018-09-02T09:13:19.470Z,98607.69
2018-09-02T09:15:48.701Z,98607.95
2018-09-02T09:18:17.969Z,98602.51
2018-09-02T09:20:47.248Z,98602.45
2018-09-02T09:23:18.644Z,98591.28
2018-09-02T09:25:48.564Z,98588.12
2018-09-02T09:28:17.882Z,98594.64
2018-09-02T09:30:50.453Z,98587.58
2018-09-02T09:33:19.661Z,98587.66
2018-09-02T09:35:53.291Z,98580.45
2018-09-02T09:38:24.691Z,98580.38
2018-09-02T09:40:57.089Z,98581.48
2018-09-02T09:43:26.361Z,98585.31
2018-09-02T09:45:59.085Z,98584.41
2018-09-02T09:48:29.266Z,98586.46
2018-09-02T09:51:03.275Z,98581.97
2018-09-02T09:53:36.656Z,98585.95
2018-09-02T09:56:14.098Z,98578.66
2018-09-02T09:58:49.812Z,98578.99
2018-09-02T10:01:25.403Z,98583.67
2018-09-02T10:03:54.642Z,98579.54
2018-09-02T10:06:27.560Z,98585.56
2018-09-02T10:08:57.389Z,98583.23
2018-09-02T10:11:26.514Z,98586.52
2018-09-02T10:13:56.106Z,98586.23
2018-09-02T10:16:25.546Z,98581.56
2018-09-02T10:18:54.601Z,98579.73
2018-09-02T10:21:23.739Z,98573.45
2018-09-02T10:23:52.870Z,98572.48
2018-09-02T10:26:21.997Z,98572.27
2018-09-02T10:28:51.899Z,98563.59
2018-09-02T10:31:21.394Z,98569.92
2018-09-02T10:33:50.544Z,98564.55
2018-09-02T10:36:20.053Z,98571.47
2018-09-02T10:38:49.338Z,98562.93
2018-09-02T10:41:18.758Z,98549.15
2018-09-02T10:43:49.024Z,98546.01
2018-09-02T10:46:21.733Z,98553.00
2018-09-02T10:48:52.743Z,98559.03
2018-09-02T10:51:23.366Z,98557.09
2018-09-02T10:53:53.367Z,98554.53
2018-09-02T10:56:22.684Z,98550.54
2018-09-02T10:58:54.849Z,98541.83
2018-09-02T11:01:32.383Z,98545.73
2018-09-02T11:04:03.809Z,98545.77
2018-09-02T11:06:34.637Z,98549.09
2018-09-02T11:09:11.244Z,98545.80
2018-09-02T11:11:40.489Z,98543.61
2018-09-02T11:14:10.343Z,98545.66
2018-09-02T11:16:39.830Z,98538.81
2018-09-02T11:19:10.270Z,98539.30
2018-09-02T11:21:39.526Z,98535.91
2018-09-02T11:24:09.640Z,98537.83
2018-09-02T11:26:38.835Z,98533.66
2018-09-02T11:29:08.097Z,98531.81
2018-09-02T11:31:49.304Z,98531.03
2018-09-02T11:34:19.084Z,98520.73
2018-09-02T11:36:48.842Z,98524.84
2018-09-02T11:39:18.048Z,98530.05
2018-09-02T11:41:47.242Z,98536.22
2018-09-02T11:44:20.041Z,98529.81
2018-09-02T11:46:49.562Z,98524.33
2018-09-02T11:49:18.630Z,98518.73
2018-09-02T11:51:47.842Z,98520.64
2018-09-02T11:54:17.033Z,98520.22
2018-09-02T11:56:46.849Z,98516.94
2018-09-02T11:59:16.024Z,98520.20
2018-09-02T12:01:44.752Z,98519.22
2018-09-02T12:04:14.036Z,98523.83
2018-09-02T12:06:43.240Z,98516.76
2018-09-02T12:09:12.433Z,98509.73
2018-09-02T12:11:51.678Z,98521.63
2018-09-02T12:14:24.514Z,98520.90
2018-09-02T12:16:58.314Z,98518.47
2018-09-02T12:19:27.936Z,98517.67
2018-09-02T12:22:06.626Z,98526.72
2018-09-02T12:24:40.860Z,98528.00
2018-09-02T12:27:11.949Z,98523.99
2018-09-02T12:29:42.528Z,98519.98
2018-09-02T12:32:11.895Z,98518.81
2018-09-02T12:34:47.430Z,98518.30
2018-09-02T12:37:23.691Z,98521.38
2018-09-02T12:39:56.895Z,98516.52
2018-09-02T12:42:26.062Z,98522.36
2018-09-02T12:44:55.182Z,98518.73
2018-09-02T12:47:24.389Z,98517.64
2018-09-02T12:49:53.514Z,98520.92
2018-09-02T12:52:22.664Z,98522.72
2018-09-02T12:54:51.869Z,98515.20
2018-09-02T12:57:20.994Z,98513.78
2018-09-02T12:59:50.162Z,98507.64
2018-09-02T13:02:19.422Z,98502.84
2018-09-02T13:04:48.612Z,98504.20
2018-09-02T13:07:17.828Z,98502.84
2018-09-02T13:09:46.967Z,98500.92
2018-09-02T13:12:22.693Z,98496.34
2018-09-02T13:14:51.842Z,98492.91
2018-09-02T13:17:20.992Z,98488.11
2018-09-02T13:19:59.104Z,98487.07
2018-09-02T13:22:28.321Z,98488.39
2018-09-02T13:25:00.150Z,98486.05
2018-09-02T13:27:29.819Z,98483.14
2018-09-02T13:29:59.014Z,98486.30
2018-09-02T13:32:28.177Z,98484.15
2018-09-02T13:34:58.038Z,98483.81
2018-09-02T13:37:27.239Z,98489.56
2018-09-02T13:39:56.463Z,98483.98
2018-09-02T13:42:25.659Z,98487.86
2018-09-02T13:44:55.669Z,98491.63
2018-09-02T13:47:31.314Z,98485.02
2018-09-02T13:50:02.492Z,98485.31
2018-09-02T13:52:37.602Z,98477.95
2018-09-02T13:55:08.527Z,98480.74
2018-09-02T13:57:49.498Z,98482.80
2018-09-02T14:00:25.038Z,98478.67
2018-09-02T14:02:54.504Z,98485.37
2018-09-02T14:05:26.121Z,98481.41
2018-09-02T14:07:57.671Z,98479.09
2018-09-02T14:10:28.649Z,98469.86
2018-09-02T14:12:57.926Z,98473.55
2018-09-02T14:15:27.248Z,98473.66
2018-09-02T14:17:56.413Z,98476.80
2018-09-02T14:22:46.260Z,98474.94
2018-09-02T14:25:15.418Z,98475.80
2018-09-02T14:27:44.776Z,98473.38
2018-09-02T14:30:19.505Z,98479.38
2018-09-02T14:32:48.737Z,98478.52
2018-09-02T14:35:18.015Z,98478.46
2018-09-02T14:37:47.331Z,98474.81
2018-09-02T14:40:16.582Z,98471.20
2018-09-02T14:42:45.818Z,98470.34
2018-09-02T14:45:15.035Z,98475.68
2018-09-02T14:47:44.265Z,98466.64
2018-09-02T14:50:13.439Z,98462.13
2018-09-02T14:52:42.692Z,98460.38
2018-09-02T14:55:12.086Z,98462.09
2018-09-02T14:57:41.542Z,98453.27
2018-09-02T15:00:11.829Z,98451.32
2018-09-02T15:02:41.042Z,98450.55
2018-09-02T15:05:11.596Z,98452.25
2018-09-02T15:07:40.970Z,98453.70
2018-09-02T15:10:10.135Z,98450.86
2018-09-02T15:12:44.626Z,98445.27
2018-09-02T15:15:13.900Z,98445.25
2018-09-02T15:30:24.566Z,98453.89
2018-09-02T15:32:53.777Z,98455.33
2018-09-02T15:35:22.980Z,98463.17
2018-09-02T15:37:52.590Z,98459.25
2018-09-02T15:40:21.758Z,98457.38
2018-09-02T15:42:50.970Z,98449.08
2018-09-02T15:45:20.150Z,98453.73
2018-09-02T15:47:56.470Z,98446.53
2018-09-02T15:50:25.940Z,98453.45
2018-09-02T15:52:55.173Z,98452.42
2018-09-02T15:55:24.346Z,98443.91
2018-09-02T15:57:53.536Z,98439.31
2018-09-02T16:00:23.350Z,98433.06
2018-09-02T16:02:58.939Z,98437.70
2018-09-02T16:05:29.242Z,98429.99
2018-09-02T16:07:58.378Z,98431.36
2018-09-02T16:10:27.560Z,98433.84
2018-09-02T16:12:56.690Z,98437.53
2018-09-02T16:15:26.340Z,98441.45
2018-09-02T16:17:55.746Z,98438.03
2018-09-02T16:20:24.980Z,98431.59
2018-09-02T16:22:54.208Z,98430.47
2018-09-02T16:25:23.577Z,98430.16
2018-09-02T16:27:53.979Z,98430.22
2018-09-02T16:30:23.171Z,98434.54
2018-09-02T16:32:52.296Z,98440.78
2018-09-02T16:35:21.443Z,98436.66
2018-09-02T16:37:50.593Z,98436.58
2018-09-02T16:40:19.734Z,98430.50
2018-09-02T16:42:48.885Z,98434.69
2018-09-02T16:45:18.066Z,98430.25
2018-09-02T16:47:47.358Z,98423.30
2018-09-02T16:50:16.514Z,98422.91
2018-09-02T16:52:45.677Z,98422.19
2018-09-02T16:55:14.853Z,98419.88
2018-09-02T16:57:44.549Z,98424.94
2018-09-02T17:00:13.780Z,98426.11
2018-09-02T17:02:42.974Z,98422.73
2018-09-02T17:05:20.475Z,98425.56
2018-09-02T17:07:50.222Z,98416.83
2018-09-02T17:10:26.073Z,98405.45
2018-09-02T17:12:55.339Z,98406.53
2018-09-02T17:15:25.142Z,98410.30
2018-09-02T17:17:59.472Z,98412.64
2018-09-02T17:20:33.798Z,98409.19
2018-09-02T17:23:12.387Z,98408.95
2018-09-02T17:25:42.621Z,98408.41
2018-09-02T17:28:14.175Z,98404.64
2018-09-02T17:30:43.322Z,98404.99
2018-09-02T17:33:14.763Z,98403.35
2018-09-02T17:35:43.943Z,98395.15
2018-09-02T17:38:13.113Z,98396.86
2018-09-02T17:40:42.256Z,98395.18
2018-09-02T17:43:11.462Z,98392.06
2018-09-02T17:45:42.018Z,98393.87
2018-09-02T17:48:11.161Z,98395.66
2018-09-02T17:50:40.287Z,98398.69
2018-09-02T17:53:09.514Z,98386.98
2018-09-02T17:55:40.749Z,98383.02
2018-09-02T17:58:09.891Z,98387.98
2018-09-02T18:00:42.462Z,98391.22
2018-09-02T18:03:11.630Z,98390.83
2018-09-02T18:05:40.771Z,98396.27
2018-09-02T18:08:10.159Z,98390.36
2018-09-02T18:10:39.394Z,98391.33
2018-09-02T18:13:08.683Z,98392.84
2018-09-02T18:15:38.692Z,98395.75
2018-09-02T18:18:07.870Z,98395.97
2018-09-02T18:20:37.088Z,98400.48
2018-09-02T18:23:06.247Z,98401.94
2018-09-02T18:25:35.430Z,98405.28
2018-09-02T18:28:07.025Z,98402.52
2018-09-02T18:30:36.335Z,98402.66
2018-09-02T18:33:05.552Z,98405.23
2018-09-02T18:35:34.701Z,98405.36
2018-09-02T18:38:05.167Z,98407.80
2018-09-02T18:40:34.326Z,98408.94
2018-09-02T18:43:03.490Z,98413.20
2018-09-02T18:45:32.645Z,98409.69
2018-09-02T18:48:01.778Z,98405.92
2018-09-02T18:50:30.950Z,98409.80
2018-09-02T18:53:03.212Z,98412.17
2018-09-02T18:55:45.942Z,98413.73
2018-09-02T18:58:17.077Z,98413.45
2018-09-02T19:00:55.092Z,98413.03
2018-09-02T19:03:24.962Z,98413.96
2018-09-02T19:05:54.534Z,98414.91
2018-09-02T19:08:23.698Z,98421.02
2018-09-02T19:10:54.435Z,98419.17
2018-09-02T19:13:23.626Z,98423.80
2018-09-02T19:15:52.967Z,98420.06
2018-09-02T19:18:22.153Z,98426.79
2018-09-02T19:20:51.274Z,98424.81
2018-09-02T19:23:27.084Z,98421.85
2018-09-02T19:25:57.803Z,98424.00
2018-09-02T19:28:26.976Z,98420.23
2018-09-02T19:30:56.410Z,98415.16
2018-09-02T19:33:25.638Z,98413.27
2018-09-02T19:35:58.064Z,98417.03
2018-09-02T19:38:27.725Z,98409.47
2018-09-02T19:40:56.959Z,98416.19
2018-09-02T19:43:26.925Z,98407.32
2018-09-02T19:45:57.894Z,98408.30
2018-09-02T19:48:27.202Z,98397.55
2018-09-02T19:51:00.946Z,98396.13
2018-09-02T19:53:32.038Z,98396.13
2018-09-02T19:56:03.153Z,98394.04
2018-09-02T19:58:44.617Z,98392.98
2018-09-02T20:01:18.416Z,98393.05
2018-09-02T20:04:00.611Z,98395.06
2018-09-02T20:06:40.242Z,98394.11
2018-09-02T20:09:13.510Z,98393.20
2018-09-02T20:11:44.965Z,98384.81
2018-09-02T20:14:18.926Z,98378.39
2018-09-02T20:16:50.088Z,98376.72
2018-09-02T20:19:19.251Z,98375.38
2018-09-02T20:21:48.450Z,98376.66
2018-09-02T20:24:17.838Z,98377.64
2018-09-02T20:26:47.034Z,98373.52
2018-09-02T20:29:16.729Z,98376.27
2018-09-02T20:31:45.880Z,98371.05
2018-09-02T20:34:15.088Z,98371.45
2018-09-02T20:36:46.044Z,98371.92
2018-09-02T20:39:15.207Z,98376.08
2018-09-02T20:41:44.335Z,98371.36
2018-09-02T20:44:13.743Z,98365.04
2018-09-02T20:46:42.894Z,98368.66
2018-09-02T20:49:12.611Z,98367.20
2018-09-02T20:51:42.414Z,98369.86
2018-09-02T20:54:12.143Z,98368.71
2018-09-02T20:56:41.339Z,98370.27
2018-09-02T20:59:10.510Z,98361.71
2018-09-02T21:01:39.859Z,98365.42
2018-09-02T21:04:09.057Z,98364.55
2018-09-02T21:06:40.742Z,98367.34
2018-09-02T21:09:12.668Z,98357.91
2018-09-02T21:11:42.163Z,98361.84
2018-09-02T21:14:11.993Z,98356.72
2018-09-02T21:16:41.957Z,98357.00
2018-09-02T21:19:11.586Z,98353.66
2018-09-02T21:21:40.871Z,98356.58
2018-09-02T21:24:10.195Z,98353.66
2018-09-02T21:26:40.245Z,98360.94
2018-09-02T21:29:09.392Z,98361.10
2018-09-02T21:31:38.551Z,98365.13
2018-09-02T21:34:07.695Z,98362.30
2018-09-02T21:36:36.844Z,98360.94
2018-09-02T21:39:07.882Z,98361.52
2018-09-02T21:41:37.000Z,98359.93
2018-09-02T21:44:06.278Z,98363.78
2018-09-02T21:46:35.648Z,98359.73
2018-09-02T21:49:05.098Z,98356.45
2018-09-02T21:51:34.218Z,98357.37
2018-09-02T21:54:03.382Z,98356.63
2018-09-02T21:56:32.826Z,98355.98
2018-09-02T21:59:01.974Z,98347.45
2018-09-02T22:01:31.122Z,98346.19
2018-09-02T22:04:00.854Z,98350.27
2018-09-02T22:06:30.066Z,98349.98
2018-09-02T22:08:59.992Z,98351.82
2018-09-02T22:11:28.391Z,98353.02
2018-09-02T22:13:57.734Z,98347.80
2018-09-02T22:16:27.367Z,98351.73
2018-09-02T22:18:57.354Z,98353.83
2018-09-02T22:21:27.767Z,98354.02
2018-09-02T22:23:57.416Z,98354.97
2018-09-02T22:26:27.012Z,98346.50
2018-09-02T22:28:56.518Z,98347.42
2018-09-02T22:31:25.858Z,98346.61
2018-09-02T22:33:55.025Z,98344.27
2018-09-02T22:36:24.247Z,98344.66
2018-09-02T22:38:53.454Z,98338.70
2018-09-02T22:41:22.906Z,98332.73
2018-09-02T22:43:52.185Z,98334.66
2018-09-02T22:46:21.387Z,98323.95
2018-09-02T22:48:50.545Z,98318.63
2018-09-02T22:51:19.717Z,98323.37
2018-09-02T22:53:48.839Z,98317.37
2018-09-02T22:56:17.978Z,98316.87
2018-09-02T22:58:47.208Z,98307.26
2018-09-02T23:01:16.372Z,98301.55
2018-09-02T23:03:45.506Z,98301.27
2018-09-02T23:06:14.803Z,98287.16
2018-09-02T23:08:44.184Z,98274.38
2018-09-02T23:11:13.367Z,98271.87
2018-09-02T23:13:42.508Z,98265.29
2018-09-02T23:16:12.286Z,98259.30
2018-09-02T23:18:41.430Z,98253.86
2018-09-02T23:21:10.558Z,98246.59
2018-09-02T23:23:40.331Z,98241.89
2018-09-02T23:26:09.615Z,98234.34
2018-09-02T23:28:38.785Z,98236.53
2018-09-02T23:31:07.974Z,98228.62
2018-09-02T23:33:37.162Z,98220.25
2018-09-02T23:36:06.326Z,98225.28
2018-09-02T23:38:35.607Z,98231.69
2018-09-02T23:41:04.802Z,98221.10
2018-09-02T23:43:34.018Z,98214.62
2018-09-02T23:46:03.178Z,98206.92
2018-09-02T23:48:32.414Z,98209.15
2018-09-02T23:51:01.869Z,98208.92
2018-09-02T23:53:31.246Z,98202.23
2018-09-02T23:56:00.866Z,98199.09
2018-09-02T23:58:30.286Z,98199.01
